Time;durP1;ratioP1;P1;durP2;ratioP2;P2;SDS_P1;SDS_P2;PMS_P1;PMS_P2;Temp;Humidity;BMP_temperature;BMP_pressure;BME280_temperature;BME280_humidity;BME280_pressure;Samples;Min_cycle;Max_cycle;Signal;HPM_P1;HPM_P2
2023/10/15 00:01:20;;;;;;;;;;;;;;;19.72;60.19;101136.38;5057967;28;20003;-90
2023/10/15 00:03:46;;;;;;;;;;;;;;;19.71;60.22;101133.72;5072147;28;20026;-91
2023/10/15 00:06:12;;;;;;;;;;;;;;;19.71;60.31;101131.97;5065195;28;19924;-91
2023/10/15 00:08:37;;;;;;;;;;;;;;;19.72;60.25;101127.53;5066289;28;20419;-90
2023/10/15 00:11:14;;;;;;;;;;;;;;;19.71;60.19;101120.47;5044061;28;20026;-91
2023/10/15 00:13:39;;;;;;;;;;;;;;;19.70;60.04;101116.91;5072737;28;19926;-91
2023/10/15 00:16:06;;;;;;;;;;;;;;;19.68;60.09;101110.66;5056489;28;19916;-92
2023/10/15 00:18:34;;;;;;;;;;;;;;;19.68;60.19;101108.03;5057851;28;20377;-90
2023/10/15 00:21:11;;;;;;;;;;;;;;;19.65;60.18;101102.63;5077994;28;19916;-92
2023/10/15 00:23:42;;;;;;;;;;;;;;;19.70;60.12;101103.66;5073841;28;19912;-91
2023/10/15 00:26:15;;;;;;;;;;;;;;;19.70;60.14;101103.66;5057565;28;19916;-92
2023/10/15 00:28:47;;;;;;;;;;;;;;;19.67;60.15;101098.28;5071831;28;19983;-92
2023/10/15 00:31:17;;;;;;;;;;;;;;;19.70;60.03;101089.53;5060038;28;19920;-90
2023/10/15 00:33:53;;;;;;;;;;;;;;;19.69;59.92;101085.06;5061378;28;19944;-93
2023/10/15 00:36:18;;;;;;;;;;;;;;;19.69;60.05;101085.06;5082599;28;19924;-88
2023/10/15 00:38:47;;;;;;;;;;;;;;;19.67;60.00;101086.78;5075639;28;19916;-89
2023/10/15 00:41:13;;;;;;;;;;;;;;;19.65;60.27;101091.16;5057131;28;19930;-90
2023/10/15 00:44:01;;;;;;;;;;;;;;;19.64;60.24;101084.06;5073623;28;19999;-89
2023/10/15 00:46:37;;;;;;;;;;;;;;;19.64;60.23;101079.66;5089166;28;20384;-92
2023/10/15 00:49:25;;;;;;;;;;;;;;;19.63;60.19;101080.50;5091464;28;19922;-93
2023/10/15 00:51:51;;;;;;;;;;;;;;;19.65;60.03;101075.25;5077401;28;19931;-91
2023/10/15 00:54:18;;;;;;;;;;;;;;;19.63;60.09;101076.97;5085791;28;20416;-89
2023/10/15 00:56:46;;;;;;;;;;;;;;;19.67;60.00;101076.19;5062320;28;19916;-91
2023/10/15 00:59:34;;;;;;;;;;;;;;;19.64;60.11;101066.41;5074817;28;19938;-90
2023/10/15 01:02:05;;;;;;;;;;;;;;;19.63;59.97;101069.03;5070426;28;19937;-91
2023/10/15 01:04:35;;;;;;;;;;;;;;;19.63;60.21;101074.31;5066856;28;19923;-91
2023/10/15 01:07:13;;;;;;;;;;;;;;;19.58;60.18;101062.72;5102626;28;19976;-89
2023/10/15 01:09:42;;;;;;;;;;;;;;;19.61;60.18;101063.69;5060485;28;19916;-90
2023/10/15 01:14:52;;;;;;;;;;;;;;;19.58;60.05;101053.03;5085452;28;19922;-89
2023/10/15 01:17:23;;;;;;;;;;;;;;;19.61;60.05;101057.50;5060633;28;19916;-89
2023/10/15 01:19:51;;;;;;;;;;;;;;;19.58;60.23;101050.38;5089383;28;19912;-89
2023/10/15 01:22:21;;;;;;;;;;;;;;;19.59;60.09;101052.16;5061076;28;19912;-91
2023/10/15 01:24:49;;;;;;;;;;;;;;;19.57;60.08;101045.94;5059540;28;20438;-91
2023/10/15 01:27:22;;;;;;;;;;;;;;;19.52;60.34;101037.00;5077799;28;20384;-88
2023/10/15 01:29:49;;;;;;;;;;;;;;;19.51;60.17;101037.84;5062245;28;19916;-89
2023/10/15 01:32:25;;;;;;;;;;;;;;;19.51;60.18;101035.22;5061837;28;20398;-90
2023/10/15 01:34:52;;;;;;;;;;;;;;;19.51;60.38;101043.16;5065443;28;19924;-90
2023/10/15 01:39:48;;;;;;;;;;;;;;;19.55;60.01;101042.34;5091883;28;19947;-88
2023/10/15 01:44:55;;;;;;;;;;;;;;;19.52;60.19;101042.31;5077480;28;19916;-89
2023/10/15 01:47:28;;;;;;;;;;;;;;;19.49;60.22;101037.84;5055301;28;19974;-91
2023/10/15 01:50:08;;;;;;;;;;;;;;;19.53;60.03;101037.03;5060412;28;19916;-89
2023/10/15 01:52:48;;;;;;;;;;;;;;;19.53;59.95;101031.72;5070990;28;19925;-90
2023/10/15 01:55:17;;;;;;;;;;;;;;;19.52;59.91;101037.00;5037934;28;20443;-90
2023/10/15 01:57:43;;;;;;;;;;;;;;;19.50;59.95;101044.03;5035616;28;20352;-91
2023/10/15 02:00:33;;;;;;;;;;;;;;;19.55;59.98;101039.72;5055388;28;19916;-90
2023/10/15 02:03:00;;;;;;;;;;;;;;;19.49;59.96;101039.56;5059564;28;19920;-91
2023/10/15 02:05:30;;;;;;;;;;;;;;;19.52;59.92;101042.31;5047038;28;20365;-91
2023/10/15 02:07:56;;;;;;;;;;;;;;;19.49;60.08;101042.22;5037222;28;20449;-91
2023/10/15 02:10:28;;;;;;;;;;;;;;;19.49;59.87;101043.16;5041014;28;19966;-90
2023/10/15 02:13:00;;;;;;;;;;;;;;;19.44;60.05;101044.78;5054385;28;19920;-89
2023/10/15 02:15:28;;;;;;;;;;;;;;;19.44;60.18;101047.44;5037190;28;20016;-89
2023/10/15 02:17:55;;;;;;;;;;;;;;;19.44;60.11;101047.44;5061989;28;20003;-90
2023/10/15 02:20:47;;;;;;;;;;;;;;;19.43;60.12;101047.38;5038629;28;20327;-93
2023/10/15 02:23:12;;;;;;;;;;;;;;;19.43;60.10;101039.44;5041094;28;20016;-90
2023/10/15 02:25:56;;;;;;;;;;;;;;;19.44;60.07;101031.53;5038198;28;20018;-90
2023/10/15 02:28:31;;;;;;;;;;;;;;;19.44;60.12;101034.19;5049163;28;19912;-91
2023/10/15 02:31:06;;;;;;;;;;;;;;;19.41;60.09;101028.84;5053381;28;19912;-90
2023/10/15 02:33:38;;;;;;;;;;;;;;;19.41;60.05;101035.84;5036369;28;19935;-92
2023/10/15 02:36:08;;;;;;;;;;;;;;;19.41;60.17;101033.22;5031714;28;20015;-90
2023/10/15 02:38:37;;;;;;;;;;;;;;;19.43;59.79;101037.69;5042559;28;19912;-91
2023/10/15 02:43:30;;;;;;;;;;;;;;;19.39;60.06;101034.94;5056455;28;19999;-89
2023/10/15 02:46:11;;;;;;;;;;;;;;;19.39;60.06;101038.50;5039766;28;20402;-90
2023/10/15 02:48:41;;;;;;;;;;;;;;;19.42;59.92;101035.00;5051279;28;19970;-91
2023/10/15 02:51:08;;;;;;;;;;;;;;;19.41;60.02;101027.91;5064638;28;20619;-89
2023/10/15 02:53:35;;;;;;;;;;;;;;;19.44;59.84;101025.34;5065026;28;19952;-89
2023/10/15 02:56:10;;;;;;;;;;;;;;;19.41;59.83;101025.25;5049903;28;19921;-89
2023/10/15 02:58:36;;;;;;;;;;;;;;;19.42;59.85;101022.66;5033837;28;20263;-89
2023/10/15 03:01:06;;;;;;;;;;;;;;;19.39;59.97;101013.75;5041794;28;19923;-90
2023/10/15 03:03:35;;;;;;;;;;;;;;;19.43;59.99;101015.59;5037554;28;19970;-89
2023/10/15 03:06:09;;;;;;;;;;;;;;;19.41;59.77;101019.97;5043021;28;20388;-89
2023/10/15 03:08:36;;;;;;;;;;;;;;;19.41;59.92;101015.59;5040743;28;19921;-89
2023/10/15 03:11:12;;;;;;;;;;;;;;;19.39;59.85;101017.31;5050985;28;19917;-88
2023/10/15 03:13:51;;;;;;;;;;;;;;;19.37;59.94;101021.69;5053155;28;19925;-88
2023/10/15 03:16:18;;;;;;;;;;;;;;;19.38;60.00;101014.63;5037288;28;19924;-88
2023/10/15 03:18:48;;;;;;;;;;;;;;;19.38;59.93;101009.31;5036212;28;19923;-87
2023/10/15 03:21:24;;;;;;;;;;;;;;;19.40;60.04;101000.53;5051339;28;22496;-87
2023/10/15 03:23:55;;;;;;;;;;;;;;;19.33;60.02;101001.28;5054444;28;19916;-90
2023/10/15 03:26:24;;;;;;;;;;;;;;;19.35;60.16;100998.69;5035149;28;20064;-90
2023/10/15 03:28:54;;;;;;;;;;;;;;;19.35;60.15;101001.31;5037851;28;19916;-89
2023/10/15 03:31:23;;;;;;;;;;;;;;;19.36;60.10;101003.09;5043910;28;19920;-90
2023/10/15 03:36:47;;;;;;;;;;;;;;;19.30;60.22;101003.84;5054229;28;19917;-90
2023/10/15 03:39:57;;;;;;;;;;;;;;;19.28;60.10;100995.88;5032610;28;19970;-91
2023/10/15 03:42:17;;;;;;;;;;;;;;;19.31;60.14;101003.00;5038055;28;19924;-90
2023/10/15 03:44:44;;;;;;;;;;;;;;;19.30;60.15;100999.47;5032519;28;19917;-90
2023/10/15 03:47:17;;;;;;;;;;;;;;;19.30;60.15;101003.84;5023432;28;19925;-89
2023/10/15 03:49:46;;;;;;;;;;;;;;;19.30;59.97;101003.84;5035419;28;20371;-90
2023/10/15 03:52:20;;;;;;;;;;;;;;;19.29;60.10;100999.44;5049458;28;19927;-92
2023/10/15 03:54:49;;;;;;;;;;;;;;;19.27;59.97;101001.16;5054618;28;19920;-91
2023/10/15 03:57:19;;;;;;;;;;;;;;;19.25;60.15;101000.22;5069424;28;19959;-90
2023/10/15 03:59:53;;;;;;;;;;;;;;;19.24;60.01;100999.31;5052697;28;19944;-90
2023/10/15 04:05:20;;;;;;;;;;;;;;;19.27;59.85;100999.38;5059716;28;19916;-91
2023/10/15 04:07:48;;;;;;;;;;;;;;;19.28;59.82;100990.59;5063431;28;20409;-91
2023/10/15 04:10:14;;;;;;;;;;;;;;;19.23;60.02;100994.00;5060539;28;19916;-92
2023/10/15 04:12:43;;;;;;;;;;;;;;;19.20;60.09;100997.47;5063905;28;19916;-92
2023/10/15 04:15:23;;;;;;;;;;;;;;;19.20;60.01;100991.25;5058277;28;19973;-91
2023/10/15 04:18:01;;;;;;;;;;;;;;;19.22;59.89;100984.25;5071829;28;19916;-91
2023/10/15 04:20:35;;;;;;;;;;;;;;;19.16;60.14;100992.06;5074960;28;19924;-90
2023/10/15 04:23:12;;;;;;;;;;;;;;;19.15;60.23;100988.50;5080894;28;19920;-93
2023/10/15 04:26:07;;;;;;;;;;;;;;;19.19;59.87;100979.78;5071968;28;19916;-91
2023/10/15 04:28:58;;;;;;;;;;;;;;;19.14;60.00;100981.44;5093670;28;19931;-95
2023/10/15 04:31:51;;;;;;;;;;;;;;;19.16;60.08;100984.13;5085936;28;20458;-94
2023/10/15 04:34:40;;;;;;;;;;;;;;;19.16;59.84;100985.03;5066078;28;19917;-95
2023/10/15 04:37:10;;;;;;;;;;;;;;;19.15;59.94;100977.03;5076051;28;19920;-94
2023/10/15 04:39:48;;;;;;;;;;;;;;;19.12;59.94;100980.50;5101013;28;19963;-94
2023/10/15 04:42:30;;;;;;;;;;;;;;;19.12;60.08;100976.09;5079986;28;20370;-95
2023/10/15 04:45:40;;;;;;;;;;;;;;;19.14;60.10;100975.25;5092346;28;19946;-94
2023/10/15 04:48:45;;;;;;;;;;;;;;;19.12;60.07;100978.75;5096284;28;19920;-95
2023/10/15 04:51:13;;;;;;;;;;;;;;;19.09;60.03;100975.13;5086932;28;21367;-96
2023/10/15 04:53:47;;;;;;;;;;;;;;;19.10;60.18;100972.53;5083471;28;19923;-95
2023/10/15 04:56:17;;;;;;;;;;;;;;;19.12;59.99;100977.88;5063218;28;20011;-94
2023/10/15 04:58:58;;;;;;;;;;;;;;;19.12;59.97;100968.16;5073356;28;19916;-95
2023/10/15 05:01:25;;;;;;;;;;;;;;;19.11;59.91;100973.41;5084075;28;19979;-94
2023/10/15 05:03:52;;;;;;;;;;;;;;;19.09;59.97;100972.50;5065731;28;20358;-95
2023/10/15 05:06:35;;;;;;;;;;;;;;;19.06;60.06;100973.31;5095524;28;20007;-95
2023/10/15 05:09:08;;;;;;;;;;;;;;;19.05;60.25;100976.84;5079258;28;20011;-94
2023/10/15 05:11:40;;;;;;;;;;;;;;;19.05;60.27;100976.84;5067713;28;20006;-95
2023/10/15 05:14:07;;;;;;;;;;;;;;;19.06;60.11;100969.78;5087987;28;19916;-93
2023/10/15 05:16:40;;;;;;;;;;;;;;;19.02;60.06;100974.09;5058355;28;19916;-91
2023/10/15 05:19:07;;;;;;;;;;;;;;;19.03;60.06;100969.72;5089196;28;20389;-91
2023/10/15 05:21:39;;;;;;;;;;;;;;;19.03;60.01;100975.03;5090429;28;19960;-90
2023/10/15 05:24:04;;;;;;;;;;;;;;;19.01;60.22;100967.03;5075804;28;19922;-88
2023/10/15 05:26:30;;;;;;;;;;;;;;;19.02;60.10;100973.22;5072169;28;19924;-89
2023/10/15 05:28:59;;;;;;;;;;;;;;;19.01;60.19;100984.69;5055733;28;20312;-89
2023/10/15 05:31:24;;;;;;;;;;;;;;;19.00;60.06;100977.59;5070537;28;19924;-88
2023/10/15 05:33:50;;;;;;;;;;;;;;;19.00;60.08;100975.81;5064772;28;19916;-90
2023/10/15 05:36:15;;;;;;;;;;;;;;;19.02;60.12;100978.50;5060570;28;19921;-91
2023/10/15 05:38:41;;;;;;;;;;;;;;;18.99;60.21;100975.81;5071528;28;19920;-89
2023/10/15 05:41:09;;;;;;;;;;;;;;;19.02;60.00;100981.16;5104231;28;20053;-87
2023/10/15 05:43:36;;;;;;;;;;;;;;;18.98;59.84;100985.47;5107399;28;20010;-88
2023/10/15 05:46:02;;;;;;;;;;;;;;;18.99;60.03;100979.34;5079208;28;20413;-89
2023/10/15 05:48:28;;;;;;;;;;;;;;;18.98;59.95;100981.94;5073483;28;19916;-89
2023/10/15 05:50:54;;;;;;;;;;;;;;;18.98;60.28;100989.88;5057639;28;19927;-89
2023/10/15 05:53:20;;;;;;;;;;;;;;;18.99;60.01;100981.09;5082001;28;19920;-88
2023/10/15 05:55:46;;;;;;;;;;;;;;;18.98;60.04;100987.25;5085019;28;20608;-89
2023/10/15 05:58:17;;;;;;;;;;;;;;;19.01;59.95;100985.56;5056296;28;19977;-91
2023/10/15 06:00:54;;;;;;;;;;;;;;;18.98;60.16;100988.13;5087996;28;19923;-89
2023/10/15 06:03:22;;;;;;;;;;;;;;;18.97;60.22;100985.47;5065074;28;20050;-89
2023/10/15 06:05:55;;;;;;;;;;;;;;;18.99;60.21;100986.41;5072979;28;19939;-91
2023/10/15 06:08:22;;;;;;;;;;;;;;;18.95;60.23;100980.13;5074517;28;20003;-90
2023/10/15 06:14:04;;;;;;;;;;;;;;;18.95;60.40;100968.66;5090959;28;19916;-92
2023/10/15 06:16:33;;;;;;;;;;;;;;;18.92;60.25;100978.31;5084727;28;19931;-91
2023/10/15 06:18:58;;;;;;;;;;;;;;;18.88;60.69;100979.09;5066417;28;19920;-91
2023/10/15 06:21:26;;;;;;;;;;;;;;;18.91;60.62;100978.28;5085490;28;20392;-90
2023/10/15 06:23:59;;;;;;;;;;;;;;;18.90;60.59;100979.13;5056307;28;20015;-91
2023/10/15 06:26:33;;;;;;;;;;;;;;;18.94;60.47;100969.50;5073493;28;19959;-93
2023/10/15 06:29:13;;;;;;;;;;;;;;;18.92;60.50;100972.09;5057953;28;19924;-90
2023/10/15 06:32:03;;;;;;;;;;;;;;;18.91;60.30;100984.44;5072946;28;19920;-91
2023/10/15 06:34:29;;;;;;;;;;;;;;;18.94;60.29;100967.75;5074028;28;20396;-93
2023/10/15 06:37:10;;;;;;;;;;;;;;;18.90;60.37;100969.44;5089409;28;19949;-92
2023/10/15 06:39:36;;;;;;;;;;;;;;;18.91;60.49;100965.94;5074221;28;19938;-92
2023/10/15 06:42:18;;;;;;;;;;;;;;;18.94;60.58;100972.16;5065920;28;19952;-94
2023/10/15 06:44:44;;;;;;;;;;;;;;;18.91;60.49;100973.88;5056141;28;19923;-92
2023/10/15 06:47:17;;;;;;;;;;;;;;;18.95;60.43;100966.00;5079135;28;19920;-94
2023/10/15 06:50:09;;;;;;;;;;;;;;;18.94;60.83;100975.69;5076335;28;19927;-95
2023/10/15 06:52:39;;;;;;;;;;;;;;;18.93;60.82;100968.63;5073103;28;19982;-94
2023/10/15 06:55:05;;;;;;;;;;;;;;;18.91;60.80;100970.34;5053930;28;19944;-95
2023/10/15 06:57:45;;;;;;;;;;;;;;;18.89;60.98;100967.66;5073068;28;19928;-93
2023/10/15 07:00:23;;;;;;;;;;;;;;;18.96;60.85;100963.38;5089889;28;19916;-94
2023/10/15 07:03:17;;;;;;;;;;;;;;;19.06;61.95;100968.03;5083375;28;19916;-93
2023/10/15 07:05:45;;;;;;;;;;;;;;;19.00;61.43;100961.69;5076330;28;20357;-92
2023/10/15 07:08:29;;;;;;;;;;;;;;;18.97;61.40;100965.19;5077327;28;20064;-92
2023/10/15 07:10:54;;;;;;;;;;;;;;;18.96;61.56;100957.19;5069725;28;20453;-93
2023/10/15 07:13:30;;;;;;;;;;;;;;;18.98;61.43;100953.72;5081977;28;19963;-91
2023/10/15 07:16:30;;;;;;;;;;;;;;;19.00;61.36;100948.47;5085612;28;19924;-94
2023/10/15 07:19:15;;;;;;;;;;;;;;;19.02;61.05;100955.59;5074740;28;19916;-92
2023/10/15 07:22:12;;;;;;;;;;;;;;;18.96;61.28;100952.78;5077560;28;19984;-93
2023/10/15 07:25:00;;;;;;;;;;;;;;;18.99;61.33;100952.88;5076031;28;19923;-92
2023/10/15 07:27:27;;;;;;;;;;;;;;;19.01;61.20;100939.69;5074256;28;20019;-94
2023/10/15 07:29:53;;;;;;;;;;;;;;;18.99;61.05;100941.41;5063230;28;19917;-91
2023/10/15 07:32:19;;;;;;;;;;;;;;;18.97;61.27;100941.38;5059652;28;19916;-91
2023/10/15 07:35:02;;;;;;;;;;;;;;;18.99;61.49;100931.72;5044929;28;20499;-92
2023/10/15 07:41:19;;;;;;;;;;;;;;;19.00;61.59;100922.88;5096011;28;20408;-93
2023/10/15 07:46:52;;;;;;;;;;;;;;;19.07;61.21;100914.25;5097508;28;19927;-91
2023/10/15 07:49:36;;;;;;;;;;;;;;;19.01;61.75;100919.41;5064291;28;20007;-92
2023/10/15 07:52:03;;;;;;;;;;;;;;;18.99;61.70;100912.28;5082406;28;19924;-90
2023/10/15 07:54:33;;;;;;;;;;;;;;;19.01;61.60;100915.88;5077984;28;19913;-90
2023/10/15 07:57:03;;;;;;;;;;;;;;;19.01;61.58;100915.88;5075669;28;19913;-90
2023/10/15 07:59:35;;;;;;;;;;;;;;;19.02;61.25;100912.34;5061752;28;19917;-91
2023/10/15 08:02:00;;;;;;;;;;;;;;;19.03;61.17;100911.50;5062590;28;19918;-90
2023/10/15 08:04:28;;;;;;;;;;;;;;;19.03;61.44;100915.03;5075213;28;19916;-93
2023/10/15 08:06:54;;;;;;;;;;;;;;;19.00;61.45;100907.00;5075211;28;19916;-90
2023/10/15 08:09:29;;;;;;;;;;;;;;;19.02;61.51;100901.75;5061669;28;19922;-91
2023/10/15 08:12:01;;;;;;;;;;;;;;;19.03;61.46;100898.28;5095946;28;20655;-93
2023/10/15 08:14:26;;;;;;;;;;;;;;;19.05;61.30;100902.72;5077914;28;19912;-90
2023/10/15 08:16:53;;;;;;;;;;;;;;;19.02;61.44;100892.06;5060955;28;19988;-92
2023/10/15 08:19:19;;;;;;;;;;;;;;;19.04;61.43;100889.44;5054983;28;20003;-92
2023/10/15 08:21:45;;;;;;;;;;;;;;;19.03;61.20;100891.22;5067734;28;20349;-91
2023/10/15 08:24:14;;;;;;;;;;;;;;;19.07;61.01;100889.50;5060411;28;19923;-91
2023/10/15 08:29:51;;;;;;;;;;;;;;;19.04;61.04;100886.81;5091567;28;19920;-92
2023/10/15 08:32:16;;;;;;;;;;;;;;;19.04;61.01;100885.03;5082787;28;19920;-92
2023/10/15 08:34:44;;;;;;;;;;;;;;;19.03;61.16;100893.88;5062723;28;19919;-92
2023/10/15 08:37:11;;;;;;;;;;;;;;;19.03;61.33;100888.56;5069471;28;20225;-90
2023/10/15 08:43:05;;;;;;;;;;;;;;;19.00;61.44;100884.94;5095579;28;19918;-92
2023/10/15 08:45:46;;;;;;;;;;;;;;;18.98;61.40;100878.72;5064287;28;19970;-92
2023/10/15 08:48:16;;;;;;;;;;;;;;;18.95;61.61;100873.38;5075383;28;19924;-93
2023/10/15 08:50:43;;;;;;;;;;;;;;;18.97;61.72;100867.25;5076776;28;19924;-91
2023/10/15 08:53:13;;;;;;;;;;;;;;;19.04;61.18;100861.22;5038079;28;19920;-91
2023/10/15 08:55:50;;;;;;;;;;;;;;;18.99;61.53;100860.25;5059114;28;20392;-92
2023/10/15 08:58:18;;;;;;;;;;;;;;;19.02;61.50;100851.47;5045396;28;19916;-92
2023/10/15 09:00:52;;;;;;;;;;;;;;;18.91;61.73;100852.13;5063661;28;19912;-91
2023/10/15 09:03:23;;;;;;;;;;;;;;;18.81;62.25;100852.78;5040469;28;19916;-90
2023/10/15 09:05:54;;;;;;;;;;;;;;;18.84;62.24;100844.94;5039814;28;19916;-92
2023/10/15 09:08:21;;;;;;;;;;;;;;;18.81;62.28;100841.31;5040816;28;19919;-91
2023/10/15 09:10:52;;;;;;;;;;;;;;;18.84;62.21;100839.66;5051878;28;20058;-90
2023/10/15 09:13:21;;;;;;;;;;;;;;;18.80;62.35;100835.16;5040476;28;19916;-91
2023/10/15 09:15:48;;;;;;;;;;;;;;;18.87;61.77;100830.88;5040355;28;19913;-90
2023/10/15 09:18:16;;;;;;;;;;;;;;;18.86;62.28;100835.28;5056175;28;19919;-91
2023/10/15 09:20:46;;;;;;;;;;;;;;;18.86;62.31;100829.09;5054981;28;19990;-90
2023/10/15 09:23:12;;;;;;;;;;;;;;;18.81;62.12;100826.34;5054815;28;19921;-90
2023/10/15 09:25:38;;;;;;;;;;;;;;;18.85;62.05;100825.53;5050701;28;19939;-91
2023/10/15 09:28:05;;;;;;;;;;;;;;;18.83;62.12;100821.97;5037713;28;19977;-90
2023/10/15 09:30:31;;;;;;;;;;;;;;;18.82;62.06;100814.03;5061947;28;19923;-92
2023/10/15 09:32:59;;;;;;;;;;;;;;;18.85;62.22;100814.06;5047056;28;19921;-89
2023/10/15 09:35:29;;;;;;;;;;;;;;;18.87;62.01;100805.31;5038163;28;19917;-92
2023/10/15 09:37:56;;;;;;;;;;;;;;;19.47;66.25;100805.56;5055827;28;19920;-92
2023/10/15 09:40:23;;;;;;;;;;;;;;;19.43;67.28;100807.28;5039566;28;20011;-87
2023/10/15 09:42:53;;;;;;;;;;;;;;;19.26;65.84;100796.38;5054211;28;19947;-88
2023/10/15 09:45:23;;;;;;;;;;;;;;;19.22;64.96;100793.63;5034882;28;19916;-93
2023/10/15 09:47:54;;;;;;;;;;;;;;;19.07;64.79;100795.13;5054014;28;20358;-88
2023/10/15 09:50:24;;;;;;;;;;;;;;;19.02;64.55;100794.13;5038566;28;19994;-89
2023/10/15 09:52:55;;;;;;;;;;;;;;;19.00;64.65;100795.84;5058200;28;19920;-88
2023/10/15 09:55:23;;;;;;;;;;;;;;;18.96;64.49;100788.72;5058784;28;19916;-89
2023/10/15 09:57:54;;;;;;;;;;;;;;;18.93;64.54;100786.03;5055819;28;19916;-90
2023/10/15 10:00:32;;;;;;;;;;;;;;;19.02;63.76;100780.00;5074249;28;19919;-89
2023/10/15 10:03:18;;;;;;;;;;;;;;;19.02;63.83;100765.03;5075176;28;19916;-89
2023/10/15 10:05:49;;;;;;;;;;;;;;;18.90;64.23;100773.63;5029995;28;19913;-89
2023/10/15 10:08:34;;;;;;;;;;;;;;;19.06;63.83;100773.91;5048095;28;19923;-90
2023/10/15 10:11:09;;;;;;;;;;;;;;;18.97;63.60;100771.09;5061302;28;19924;-91
2023/10/15 10:14:07;;;;;;;;;;;;;;;18.99;63.70;100770.28;5056123;28;19917;-91
2023/10/15 10:16:33;;;;;;;;;;;;;;;19.03;62.73;100769.47;5079759;28;19947;-92
2023/10/15 10:19:00;;;;;;;;;;;;;;;18.99;63.48;100770.28;5073698;28;20347;-91
2023/10/15 10:21:36;;;;;;;;;;;;;;;18.97;63.38;100769.34;5061599;28;19916;-91
2023/10/15 10:24:08;;;;;;;;;;;;;;;19.05;63.40;100759.81;5091794;28;19942;-90
2023/10/15 10:26:35;;;;;;;;;;;;;;;19.05;63.18;100750.94;5066081;28;19927;-90
2023/10/15 10:29:02;;;;;;;;;;;;;;;19.04;62.77;100752.72;5061980;28;19920;-89
2023/10/15 10:31:33;;;;;;;;;;;;;;;19.07;63.40;100742.19;5071259;28;19981;-90
2023/10/15 10:34:03;;;;;;;;;;;;;;;19.03;63.21;100743.00;5074385;28;20403;-91
2023/10/15 10:36:30;;;;;;;;;;;;;;;19.04;63.30;100738.59;5059097;28;19998;-90
2023/10/15 10:39:10;;;;;;;;;;;;;;;19.14;63.18;100739.66;5074162;28;19916;-91
2023/10/15 10:41:47;;;;;;;;;;;;;;;19.03;63.43;100729.78;5077894;28;19916;-94
2023/10/15 10:44:34;;;;;;;;;;;;;;;19.00;63.29;100721.75;5079080;28;19920;-88
2023/10/15 10:47:03;;;;;;;;;;;;;;;18.99;63.32;100722.63;5089602;28;20619;-87
2023/10/15 10:49:31;;;;;;;;;;;;;;;19.09;63.18;100719.31;5066862;28;19916;-89
2023/10/15 10:52:05;;;;;;;;;;;;;;;19.06;63.12;100715.69;5055141;28;20006;-90
2023/10/15 10:54:32;;;;;;;;;;;;;;;19.08;63.09;100717.50;5071205;28;20929;-90
2023/10/15 10:57:01;;;;;;;;;;;;;;;18.95;63.18;100686.38;5064588;28;20008;-87
2023/10/15 10:59:28;;;;;;;;;;;;;;;19.03;63.04;100718.31;5072173;28;19916;-90
2023/10/15 11:01:53;;;;;;;;;;;;;;;19.04;62.98;100709.47;5084483;28;19931;-88
2023/10/15 11:04:19;;;;;;;;;;;;;;;19.00;63.07;100702.34;5101965;28;19916;-88
2023/10/15 11:06:48;;;;;;;;;;;;;;;19.09;62.89;100705.16;5051533;28;19926;-90
2023/10/15 11:09:19;;;;;;;;;;;;;;;19.02;63.49;100697.97;5057086;28;19924;-88
2023/10/15 11:11:48;;;;;;;;;;;;;;;19.06;63.17;100702.47;5089208;28;20321;-88
2023/10/15 11:14:14;;;;;;;;;;;;;;;19.16;63.02;100695.59;5088465;28;19960;-88
2023/10/15 11:16:42;;;;;;;;;;;;;;;19.16;63.10;100708.81;5074398;28;19923;-89
2023/10/15 11:19:14;;;;;;;;;;;;;;;19.07;63.32;100698.94;5080813;28;20015;-87
2023/10/15 11:21:40;;;;;;;;;;;;;;;19.09;63.25;100692.81;5101462;28;20614;-88
2023/10/15 11:24:09;;;;;;;;;;;;;;;19.08;63.16;100691.03;5099723;28;20050;-89
2023/10/15 11:26:35;;;;;;;;;;;;;;;19.03;63.29;100686.53;5063020;28;19920;-87
2023/10/15 11:29:02;;;;;;;;;;;;;;;19.08;63.23;100691.03;5081217;28;19947;-88
2023/10/15 11:31:28;;;;;;;;;;;;;;;19.07;63.35;100691.91;5071232;28;19917;-89
2023/10/15 11:33:54;;;;;;;;;;;;;;;19.18;62.80;100691.22;5067428;28;19942;-88
2023/10/15 11:36:20;;;;;;;;;;;;;;;19.10;63.18;100696.34;5076069;28;19985;-89
2023/10/15 11:38:46;;;;;;;;;;;;;;;19.12;63.43;100690.22;5077840;28;19980;-90
2023/10/15 11:41:12;;;;;;;;;;;;;;;19.19;62.98;100690.34;5068375;28;19927;-89
2023/10/15 11:43:38;;;;;;;;;;;;;;;19.24;62.81;100693.94;5081933;28;19916;-88
2023/10/15 11:46:07;;;;;;;;;;;;;;;19.25;62.79;100682.50;5063627;28;20357;-90
2023/10/15 11:48:34;;;;;;;;;;;;;;;19.27;62.50;100681.66;5073117;28;19920;-89
2023/10/15 11:50:59;;;;;;;;;;;;;;;19.22;62.72;100686.00;5051601;28;19985;-87
2023/10/15 11:53:25;;;;;;;;;;;;;;;19.24;62.64;100681.63;5052212;28;19920;-89
2023/10/15 11:55:52;;;;;;;;;;;;;;;19.24;62.61;100670.13;5029222;28;19967;-89
2023/10/15 11:58:19;;;;;;;;;;;;;;;19.21;62.71;100670.97;5045517;28;19985;-87
2023/10/15 12:00:48;;;;;;;;;;;;;;;19.26;62.81;100676.31;5049374;28;19916;-89
2023/10/15 12:03:15;;;;;;;;;;;;;;;19.35;62.21;100671.22;5033341;28;19920;-88
2023/10/15 12:05:43;;;;;;;;;;;;;;;19.33;62.36;100667.63;5049591;28;19920;-88
2023/10/15 12:08:12;;;;;;;;;;;;;;;19.36;62.07;100672.97;5050244;28;20013;-88
2023/10/15 12:10:42;;;;;;;;;;;;;;;19.36;62.39;100672.09;5052387;28;19916;-87
2023/10/15 12:13:17;;;;;;;;;;;;;;;19.40;62.12;100671.28;5032696;28;19939;-85
2023/10/15 12:15:42;;;;;;;;;;;;;;;19.37;62.15;100669.47;5030674;28;19920;-87
2023/10/15 12:18:08;;;;;;;;;;;;;;;19.36;62.38;100666.78;5049621;28;19923;-87
2023/10/15 12:20:34;;;;;;;;;;;;;;;19.45;62.03;100669.56;5048122;28;20019;-87
2023/10/15 12:22:59;;;;;;;;;;;;;;;19.47;61.81;100667.84;5061896;28;20343;-86
2023/10/15 12:25:26;;;;;;;;;;;;;;;19.48;61.91;100667.88;5046709;28;19920;-87
2023/10/15 12:27:51;;;;;;;;;;;;;;;19.48;62.01;100661.69;5052938;28;19935;-85
2023/10/15 12:30:29;;;;;;;;;;;;;;;19.47;62.16;100667.84;5067238;28;19920;-86
2023/10/15 12:32:55;;;;;;;;;;;;;;;19.45;62.13;100661.63;5066626;28;19917;-86
2023/10/15 12:35:21;;;;;;;;;;;;;;;19.51;62.08;100661.72;5032763;28;19942;-87
2023/10/15 12:37:47;;;;;;;;;;;;;;;19.51;61.91;100648.50;5047646;28;19921;-86
2023/10/15 12:40:21;;;;;;;;;;;;;;;19.57;61.82;100648.59;5072370;28;19928;-86
2023/10/15 12:42:47;;;;;;;;;;;;;;;19.55;62.07;100644.16;5050939;28;19952;-88
2023/10/15 12:45:13;;;;;;;;;;;;;;;19.50;62.16;100639.66;5049505;28;19959;-88
2023/10/15 12:47:39;;;;;;;;;;;;;;;19.50;61.99;100637.03;5051787;28;19981;-90
2023/10/15 12:50:07;;;;;;;;;;;;;;;19.56;62.01;100635.31;5049343;28;19916;-88
2023/10/15 12:52:34;;;;;;;;;;;;;;;19.49;62.01;100637.91;5062465;28;20010;-88
2023/10/15 12:55:04;;;;;;;;;;;;;;;19.43;62.29;100648.41;5070368;28;19931;-91
2023/10/15 12:57:31;;;;;;;;;;;;;;;19.40;62.36;100643.03;5054054;28;19916;-88
2023/10/15 12:59:59;;;;;;;;;;;;;;;19.43;62.54;100650.13;5066070;28;19916;-89
2023/10/15 13:02:26;;;;;;;;;;;;;;;19.49;62.00;100653.78;5063936;28;19920;-88
2023/10/15 13:04:53;;;;;;;;;;;;;;;19.43;62.58;100655.41;5075776;28;19917;-91
2023/10/15 13:07:19;;;;;;;;;;;;;;;19.48;62.40;100657.28;5066839;28;19931;-92
2023/10/15 13:09:44;;;;;;;;;;;;;;;19.53;63.55;100652.94;5056161;28;19916;-88
2023/10/15 13:12:10;;;;;;;;;;;;;;;19.64;63.28;100653.13;5070596;28;19969;-86
2023/10/15 13:14:36;;;;;;;;;;;;;;;19.76;62.81;100643.59;5077902;28;19920;-86
2023/10/15 13:17:01;;;;;;;;;;;;;;;19.77;62.57;100645.38;5074143;28;19978;-86
2023/10/15 13:19:28;;;;;;;;;;;;;;;19.83;62.03;100650.75;5073761;28;20003;-87
2023/10/15 13:21:54;;;;;;;;;;;;;;;19.73;62.42;100640.03;5088283;28;19924;-86
2023/10/15 13:24:19;;;;;;;;;;;;;;;19.72;62.38;100646.19;5091689;28;20104;-89
2023/10/15 13:26:46;;;;;;;;;;;;;;;19.78;61.82;100641.88;5043087;28;19928;-89
2023/10/15 13:29:14;;;;;;;;;;;;;;;19.76;61.94;100641.84;5073751;28;19916;-92